createdAt,value
2019-04-23T00:01:47.211Z,100472.88
2019-04-23T00:04:10.121Z,100473.29
2019-04-23T00:06:45.635Z,100473.73
2019-04-23T00:09:19.183Z,100477.66
2019-04-23T00:14:21.083Z,100479.36
2019-04-23T00:16:44.065Z,100470.98
2019-04-23T00:19:17.051Z,100465.17
2019-04-23T00:22:00.375Z,100464.28
2019-04-23T00:25:12.164Z,100452.76
2019-04-23T00:29:53.689Z,100463.83
2019-04-23T00:32:23.429Z,100454.52
2019-04-23T00:34:55.864Z,100452.25
2019-04-23T00:37:25.775Z,100448.27
2019-04-23T00:39:52.517Z,100445.59
2019-04-23T00:44:54.320Z,100440.77
2019-04-23T00:47:27.601Z,100443.45
2019-04-23T00:50:03.606Z,100442.58
2019-04-23T00:52:26.388Z,100439.03
2019-04-23T00:55:07.722Z,100424.80
2019-04-23T00:57:29.052Z,100433.72
2019-04-23T01:00:03.464Z,100429.33
2019-04-23T01:02:33.277Z,100424.95
2019-04-23T01:05:04.802Z,100429.82
2019-04-23T01:07:33.588Z,100431.62
2019-04-23T01:10:08.299Z,100426.32
2019-04-23T01:15:15.721Z,100425.91
2019-04-23T01:20:14.260Z,100422.42
2019-04-23T01:22:29.621Z,100426.41
2019-04-23T01:25:13.794Z,100419.33
2019-04-23T01:28:04.393Z,100421.11
2019-04-23T01:30:38.840Z,100423.80
2019-04-23T01:33:03.345Z,100417.62
2019-04-23T01:35:36.556Z,100419.39
2019-04-23T01:38:04.829Z,100417.17
2019-04-23T01:40:39.438Z,100414.13
2019-04-23T01:43:07.946Z,100409.25
2019-04-23T01:45:57.431Z,100405.69
2019-04-23T01:48:11.108Z,100411.48
2019-04-23T01:50:50.194Z,100408.85
2019-04-23T01:55:46.877Z,100396.89
2019-04-23T01:58:34.990Z,100403.55
2019-04-23T02:00:47.565Z,100395.19
2019-04-23T02:03:21.184Z,100395.59
2019-04-23T02:05:48.084Z,100395.63
2019-04-23T02:08:22.787Z,100389.47
2019-04-23T02:13:22.355Z,100385.11
2019-04-23T02:15:53.810Z,100387.32
2019-04-23T02:18:20.572Z,100384.25
2019-04-23T02:20:59.544Z,100381.59
2019-04-23T02:23:53.726Z,100370.53
2019-04-23T02:26:33.319Z,100378.11
2019-04-23T02:29:06.433Z,100370.15
2019-04-23T02:34:12.161Z,100367.12
2019-04-23T02:36:39.876Z,100366.70
2019-04-23T02:46:31.712Z,100359.34
2019-04-23T02:49:38.198Z,100354.05
2019-04-23T02:56:47.105Z,100343.45
2019-04-23T02:59:18.958Z,100337.73
2019-04-23T03:01:40.039Z,100340.42
2019-04-23T03:04:17.446Z,100335.14
2019-04-23T03:06:52.254Z,100324.58
2019-04-23T03:09:20.094Z,100337.02
2019-04-23T03:11:52.261Z,100336.16
2019-04-23T03:14:18.478Z,100337.05
2019-04-23T03:22:30.534Z,100322.09
2019-04-23T03:25:23.276Z,100318.99
2019-04-23T03:27:44.047Z,100313.29
2019-04-23T03:34:42.585Z,100315.55
2019-04-23T03:37:58.169Z,100305.86
2019-04-23T03:40:32.420Z,100310.73
2019-04-23T03:43:06.430Z,100304.13
2019-04-23T03:45:37.030Z,100304.18
2019-04-23T03:52:46.528Z,100298.50
2019-04-23T03:57:52.343Z,100299.41
2019-04-23T04:00:35.180Z,100290.13
2019-04-23T04:03:27.901Z,100299.89
2019-04-23T04:05:49.312Z,100301.22
2019-04-23T04:10:35.293Z,100295.53
2019-04-23T04:12:59.195Z,100303.94
2019-04-23T04:20:52.363Z,100303.11
2019-04-23T04:23:22.222Z,100301.36
2019-04-23T04:28:12.955Z,100294.30
2019-04-23T04:30:43.517Z,100291.66
2019-04-23T04:33:41.340Z,100289.91
2019-04-23T04:35:58.369Z,100289.47
2019-04-23T04:38:36.383Z,100286.40
2019-04-23T04:43:32.247Z,100294.78
2019-04-23T04:53:47.417Z,100289.93
2019-04-23T04:56:07.786Z,100287.74
2019-04-23T04:58:32.388Z,100287.28
2019-04-23T05:01:10.059Z,100288.62
2019-04-23T05:03:28.533Z,100289.94
2019-04-23T05:06:18.612Z,100286.41
2019-04-23T05:11:10.933Z,100282.42
2019-04-23T05:16:10.082Z,100288.14
2019-04-23T05:18:38.174Z,100279.31
2019-04-23T05:23:43.009Z,100276.59
2019-04-23T05:26:21.017Z,100269.54
2019-04-23T05:31:19.013Z,100263.30
2019-04-23T05:33:52.214Z,100269.48
2019-04-23T05:41:38.466Z,100260.15
2019-04-23T05:43:57.236Z,100259.67
2019-04-23T05:46:26.417Z,100263.60
2019-04-23T05:51:27.955Z,100257.80
2019-04-23T05:56:29.106Z,100243.57
2019-04-23T05:58:59.605Z,100254.16
2019-04-23T06:06:54.159Z,100255.86
2019-04-23T06:09:07.803Z,100243.89
2019-04-23T06:11:47.056Z,100247.39
2019-04-23T06:14:24.989Z,100245.58
2019-04-23T06:19:11.185Z,100241.95
2019-04-23T06:21:47.867Z,100234.81
2019-04-23T06:24:16.991Z,100233.00
2019-04-23T06:26:52.753Z,100227.64
2019-04-23T06:29:15.484Z,100221.83
2019-04-23T06:36:37.815Z,100217.67
2019-04-23T06:39:13.330Z,100212.28
2019-04-23T06:41:44.841Z,100211.82
2019-04-23T06:44:28.438Z,100202.45
2019-04-23T06:47:02.107Z,100199.27
2019-04-23T06:49:26.447Z,100198.77
2019-04-23T06:52:08.442Z,100195.61
2019-04-23T06:54:24.465Z,100192.44
2019-04-23T06:59:29.328Z,100187.41
2019-04-23T07:04:39.366Z,100183.30
2019-04-23T07:07:25.664Z,100188.50
2019-04-23T07:09:18.692Z,100187.09
2019-04-23T07:11:54.048Z,100194.06
2019-04-23T07:14:35.913Z,100189.55
2019-04-23T07:17:04.273Z,100190.80
2019-04-23T07:19:39.241Z,100181.35
2019-04-23T07:22:12.908Z,100180.80
2019-04-23T07:24:34.557Z,100176.78
2019-04-23T07:27:01.325Z,100173.56
2019-04-23T07:29:39.189Z,100172.52
2019-04-23T07:32:05.384Z,100170.19
2019-04-23T07:34:39.317Z,100164.27
2019-04-23T07:37:12.601Z,100157.96
2019-04-23T07:40:11.325Z,100154.73
2019-04-23T07:48:11.269Z,100154.25
2019-04-23T07:58:20.821Z,100142.77
2019-04-23T08:05:43.983Z,100146.13
2019-04-23T08:08:13.402Z,100141.47
2019-04-23T08:11:23.425Z,100142.94
2019-04-23T08:13:41.654Z,100138.66
2019-04-23T08:16:19.694Z,100129.81
2019-04-23T08:18:45.369Z,100127.28
2019-04-23T08:21:10.599Z,100134.14
2019-04-23T08:23:55.269Z,100120.97
2019-04-23T08:26:45.112Z,100113.12
2019-04-23T08:29:17.133Z,100108.84
2019-04-23T08:31:46.704Z,100106.17
2019-04-23T08:39:21.545Z,100084.63
2019-04-23T08:41:59.661Z,100093.72
2019-04-23T08:44:41.495Z,100089.73
2019-04-23T08:47:09.426Z,100080.52
2019-04-23T08:49:43.251Z,100080.13
2019-04-23T08:52:11.815Z,100084.77
2019-04-23T08:54:48.397Z,100083.16
2019-04-23T08:59:45.171Z,100077.72
2019-04-23T09:05:02.545Z,100063.33
2019-04-23T09:07:16.923Z,100061.60
2019-04-23T09:09:53.677Z,100059.44
2019-04-23T09:12:21.031Z,100064.88
2019-04-23T09:14:46.563Z,100050.11
2019-04-23T09:17:37.659Z,100044.88
2019-04-23T09:20:09.862Z,100047.52
2019-04-23T09:22:25.109Z,100049.12
2019-04-23T09:27:27.529Z,100032.86
2019-04-23T09:30:00.048Z,100036.05
2019-04-23T09:32:26.591Z,100032.87
2019-04-23T09:35:20.247Z,100022.25
2019-04-23T09:37:54.110Z,100013.33
2019-04-23T09:43:31.250Z,100011.08
2019-04-23T09:46:32.067Z,100007.80
2019-04-23T09:49:09.791Z,100009.94
2019-04-23T09:51:38.665Z,99991.95
2019-04-23T09:54:02.945Z,99997.01
2019-04-23T09:56:39.329Z,99995.54
2019-04-23T09:59:08.922Z,99993.24
2019-04-23T10:03:56.112Z,99984.02
2019-04-23T10:06:18.334Z,99985.42
2019-04-23T10:08:47.572Z,99974.59
2019-04-23T10:11:13.610Z,99969.72
2019-04-23T10:13:42.963Z,99974.95
2019-04-23T10:16:15.630Z,99964.86
2019-04-23T10:18:42.923Z,99968.63
2019-04-23T10:21:13.101Z,99964.01
2019-04-23T10:23:43.299Z,99961.28
2019-04-23T10:26:12.396Z,99973.20
2019-04-23T10:29:09.956Z,99971.39
2019-04-23T10:31:40.028Z,99962.03
2019-04-23T10:34:10.341Z,99966.84
2019-04-23T10:36:40.663Z,99963.59
2019-04-23T10:39:17.579Z,99968.42
2019-04-23T10:41:45.731Z,99954.73
2019-04-23T10:44:32.997Z,99947.53
2019-04-23T10:47:45.352Z,99953.89
2019-04-23T10:58:25.009Z,99936.62
2019-04-23T11:01:01.662Z,99935.42
2019-04-23T11:03:41.984Z,99941.92
2019-04-23T11:08:30.984Z,99930.06
2019-04-23T11:11:00.163Z,99941.13
2019-04-23T11:13:50.208Z,99939.07
2019-04-23T11:16:45.927Z,99932.89
2019-04-23T11:21:23.752Z,99938.77
2019-04-23T11:23:51.799Z,99932.00
2019-04-23T11:26:31.854Z,99929.98
2019-04-23T11:28:51.888Z,99927.34
2019-04-23T11:31:31.568Z,99930.49
2019-04-23T11:34:01.588Z,99929.43
2019-04-23T11:39:00.642Z,99931.60
2019-04-23T11:41:32.412Z,99934.50
2019-04-23T11:51:09.303Z,99928.98
2019-04-23T11:51:09.304Z,99906.67
2019-04-23T11:51:45.910Z,99916.31
2019-04-23T11:54:07.065Z,99912.65
2019-04-23T11:59:07.539Z,99899.64
2019-04-23T12:02:07.386Z,99900.61
2019-04-23T12:05:03.756Z,99909.34
2019-04-23T12:07:32.605Z,99906.59
2019-04-23T12:12:33.334Z,99896.39
2019-04-23T12:15:15.343Z,99897.13
2019-04-23T12:17:49.053Z,99888.82
2019-04-23T12:22:48.951Z,99895.95
2019-04-23T12:27:59.363Z,99885.59
2019-04-23T12:30:27.392Z,99876.84
2019-04-23T12:32:53.685Z,99881.48
2019-04-23T12:37:56.282Z,99871.68
2019-04-23T12:40:25.049Z,99878.17
2019-04-23T12:45:30.162Z,99876.17
2019-04-23T12:50:45.048Z,99869.71
2019-04-23T12:53:05.732Z,99865.64
2019-04-23T12:58:03.847Z,99853.30
2019-04-23T13:03:25.971Z,99845.00
2019-04-23T13:05:33.944Z,99851.25
2019-04-23T13:08:24.574Z,99848.30
2019-04-23T13:10:43.638Z,99850.52
2019-04-23T13:15:40.882Z,99841.97
2019-04-23T13:20:38.461Z,99841.20
2019-04-23T13:23:18.322Z,99835.78
2019-04-23T13:28:29.505Z,99819.20
2019-04-23T13:30:59.542Z,99827.54
2019-04-23T13:41:08.800Z,99815.28
2019-04-23T13:43:40.438Z,99829.90
2019-04-23T13:48:27.990Z,99818.84
2019-04-23T13:51:06.725Z,99816.72
2019-04-23T13:56:11.510Z,99813.78
2019-04-23T14:11:21.638Z,99802.15
2019-04-23T14:16:29.836Z,99804.27
2019-04-23T14:21:25.261Z,99805.66
2019-04-23T14:24:02.923Z,99806.30
2019-04-23T14:28:44.557Z,99803.88
2019-04-23T14:34:01.311Z,99790.14
2019-04-23T14:36:25.315Z,99801.39
2019-04-23T14:39:07.274Z,99774.27
2019-04-23T14:42:16.669Z,99787.56
2019-04-23T14:44:11.056Z,99789.32
2019-04-23T14:49:30.852Z,99779.84
2019-04-23T14:51:47.814Z,99780.63
2019-04-23T14:54:15.808Z,99786.09
2019-04-23T14:56:44.905Z,99793.68
2019-04-23T14:59:10.452Z,99783.48
2019-04-23T15:04:10.919Z,99767.66
2019-04-23T15:06:58.293Z,99763.25
2019-04-23T15:09:27.616Z,99770.50
2019-04-23T15:11:52.750Z,99759.48
2019-04-23T15:14:17.725Z,99771.95
2019-04-23T15:16:54.441Z,99757.58
2019-04-23T15:19:40.423Z,99760.14
2019-04-23T15:22:12.501Z,99746.22
2019-04-23T15:29:24.551Z,99747.45
2019-04-23T15:32:08.989Z,99755.23
2019-04-23T15:34:57.526Z,99752.93
2019-04-23T15:44:41.933Z,99737.36
2019-04-23T15:47:19.687Z,99740.46
2019-04-23T15:49:47.390Z,99742.41
2019-04-23T15:52:39.330Z,99747.61
2019-04-23T15:54:50.540Z,99740.25
2019-04-23T15:57:28.445Z,99746.98
2019-04-23T15:59:47.864Z,99742.80
2019-04-23T16:01:51.202Z,99736.78
2019-04-23T16:04:20.817Z,99741.82
2019-04-23T16:06:51.915Z,99750.36
2019-04-23T16:09:57.371Z,99738.89
2019-04-23T16:12:20.458Z,99747.25
2019-04-23T16:15:03.655Z,99736.02
2019-04-23T16:22:30.410Z,99749.41
2019-04-23T16:25:06.852Z,99755.20
2019-04-23T16:27:28.306Z,99753.20
2019-04-23T16:35:50.671Z,99740.20
2019-04-23T16:38:26.704Z,99739.94
2019-04-23T16:41:00.759Z,99742.91
2019-04-23T16:43:13.265Z,99735.41
2019-04-23T16:48:35.058Z,99734.58
2019-04-23T16:53:21.204Z,99727.21
2019-04-23T16:56:01.551Z,99733.52
2019-04-23T16:58:29.457Z,99726.36
2019-04-23T17:01:05.899Z,99729.90
2019-04-23T17:03:26.245Z,99728.08
2019-04-23T17:05:59.457Z,99724.02
2019-04-23T17:11:00.126Z,99727.31
2019-04-23T17:13:34.660Z,99725.19
2019-04-23T17:18:31.882Z,99714.06
2019-04-23T17:20:58.326Z,99709.80
2019-04-23T17:23:39.957Z,99711.76
2019-04-23T17:26:03.425Z,99717.73
2019-04-23T17:28:31.054Z,99715.63
2019-04-23T17:31:28.169Z,99699.77
2019-04-23T17:33:45.125Z,99716.07
2019-04-23T17:39:04.000Z,99727.48
2019-04-23T17:41:57.451Z,99717.08
2019-04-23T17:44:23.625Z,99727.42
2019-04-23T17:46:57.963Z,99714.21
2019-04-23T17:49:15.301Z,99728.16
2019-04-23T17:51:53.811Z,99726.89
2019-04-23T17:54:23.257Z,99714.50
2019-04-23T17:57:05.509Z,99721.50
2019-04-23T17:59:27.765Z,99724.38
2019-04-23T18:02:24.269Z,99717.95
2019-04-23T18:04:29.658Z,99722.71
2019-04-23T18:14:16.497Z,99735.80
2019-04-23T18:16:57.200Z,99730.78
2019-04-23T18:19:22.854Z,99745.75
2019-04-23T18:27:24.735Z,99752.54
2019-04-23T18:30:15.237Z,99761.16
2019-04-23T18:33:01.337Z,99761.02
2019-04-23T18:35:20.100Z,99757.70
2019-04-23T18:37:44.292Z,99763.83
2019-04-23T18:40:13.052Z,99767.15
2019-04-23T18:42:43.696Z,99757.26
2019-04-23T18:45:22.805Z,99765.63
2019-04-23T18:50:32.779Z,99774.41
2019-04-23T18:55:35.979Z,99776.10
2019-04-23T18:58:03.396Z,99771.97
2019-04-23T19:00:41.438Z,99778.54
2019-04-23T19:03:11.544Z,99771.25
2019-04-23T19:05:55.029Z,99774.08
2019-04-23T19:08:42.572Z,99776.53
2019-04-23T19:11:09.138Z,99781.45
2019-04-23T19:13:40.338Z,99778.07
2019-04-23T19:16:08.087Z,99777.94
2019-04-23T19:18:40.381Z,99781.28
2019-04-23T19:21:13.863Z,99776.70
2019-04-23T19:23:47.269Z,99785.73
2019-04-23T19:26:15.794Z,99780.53
2019-04-23T19:28:47.639Z,99784.77
2019-04-23T19:31:47.586Z,99791.92
2019-04-23T19:34:21.377Z,99785.78
2019-04-23T19:36:56.352Z,99791.17
2019-04-23T19:39:11.915Z,99794.38
2019-04-23T19:42:02.123Z,99794.60
2019-04-23T19:44:08.381Z,99788.93
2019-04-23T19:46:54.856Z,99801.42
2019-04-23T19:51:48.161Z,99793.30
2019-04-23T19:56:49.782Z,99787.33
2019-04-23T19:59:14.104Z,99788.31
2019-04-23T20:01:53.345Z,99792.93
2019-04-23T20:04:15.415Z,99782.39
2019-04-23T20:07:05.472Z,99790.91
2019-04-23T20:09:37.415Z,99796.72
2019-04-23T20:12:07.313Z,99795.87
2019-04-23T20:14:21.472Z,99795.70
2019-04-23T20:19:34.904Z,99800.73
2019-04-23T20:21:59.221Z,99799.54
2019-04-23T20:24:28.614Z,99800.91
2019-04-23T20:26:59.384Z,99799.31
2019-04-23T20:35:08.524Z,99785.58
2019-04-23T20:40:04.138Z,99790.22
2019-04-23T20:42:38.994Z,99787.13
2019-04-23T20:45:22.607Z,99785.75
2019-04-23T20:47:45.595Z,99781.70
2019-04-23T20:50:00.076Z,99776.54
2019-04-23T20:52:44.817Z,99781.64
2019-04-23T20:57:54.964Z,99794.75
2019-04-23T21:00:42.981Z,99796.59
2019-04-23T21:05:36.035Z,99790.09
2019-04-23T21:08:41.011Z,99792.41
2019-04-23T21:20:48.850Z,99787.66
2019-04-23T21:23:21.639Z,99791.31
2019-04-23T21:25:49.036Z,99785.16
2019-04-23T21:28:27.154Z,99786.53
2019-04-23T21:31:16.428Z,99790.61
2019-04-23T21:33:55.378Z,99791.98
2019-04-23T21:44:21.018Z,99792.08
2019-04-23T21:46:58.492Z,99789.53
2019-04-23T21:51:57.584Z,99805.16
2019-04-23T21:54:35.337Z,99803.07
2019-04-23T21:56:55.328Z,99800.45
2019-04-23T21:59:28.627Z,99807.61
2019-04-23T22:01:58.835Z,99802.39
2019-04-23T22:04:35.691Z,99801.95
2019-04-23T22:06:59.088Z,99794.44
2019-04-23T22:09:34.642Z,99799.00
2019-04-23T22:14:40.549Z,99790.22
2019-04-23T22:17:09.478Z,99790.80
2019-04-23T22:19:38.355Z,99790.47
2019-04-23T22:22:02.589Z,99800.73
2019-04-23T22:24:43.033Z,99809.14
2019-04-23T22:27:10.114Z,99799.06
2019-04-23T22:29:39.724Z,99804.83
2019-04-23T22:32:16.679Z,99812.41
2019-04-23T22:34:48.288Z,99812.84
2019-04-23T22:37:14.034Z,99804.06
2019-04-23T22:39:45.743Z,99810.28
2019-04-23T22:42:34.913Z,99810.36
2019-04-23T22:44:59.092Z,99817.01
2019-04-23T22:47:08.821Z,99810.85
2019-04-23T22:52:21.688Z,99811.05
2019-04-23T22:57:32.777Z,99820.20
2019-04-23T23:00:09.162Z,99817.05
2019-04-23T23:02:44.388Z,99814.05
2019-04-23T23:05:14.373Z,99811.95
2019-04-23T23:07:48.849Z,99819.96
2019-04-23T23:17:54.633Z,99804.19
2019-04-23T23:20:21.116Z,99802.39
2019-04-23T23:23:05.643Z,99801.13
2019-04-23T23:25:23.838Z,99804.22
2019-04-23T23:27:55.231Z,99803.72
2019-04-23T23:32:52.389Z,99805.05
2019-04-23T23:35:31.213Z,99801.52
2019-04-23T23:37:52.957Z,99802.45
2019-04-23T23:40:20.439Z,99804.19
2019-04-23T23:43:03.693Z,99804.09
2019-04-23T23:45:30.500Z,99801.52
2019-04-23T23:50:28.072Z,99791.78
2019-04-23T23:53:05.247Z,99794.94
2019-04-23T23:55:18.503Z,99795.41
2019-04-23T23:57:59.749Z,99791.44
